createdAt,value
2022-09-13T00:01:10.045Z,18.20
2022-09-13T00:03:36.917Z,18.20
2022-09-13T00:06:14.221Z,18.10
2022-09-13T00:08:42.138Z,18.10
2022-09-13T00:11:20.461Z,18.10
2022-09-13T00:13:48.026Z,18.10
2022-09-13T00:16:18.638Z,18.10
2022-09-13T00:18:46.118Z,18.00
2022-09-13T00:21:16.938Z,18.00
2022-09-13T00:23:49.373Z,18.00
2022-09-13T00:26:23.295Z,18.00
2022-09-13T00:28:56.514Z,18.00
2022-09-13T00:31:27.416Z,17.90
2022-09-13T00:33:54.641Z,17.90
2022-09-13T00:36:21.400Z,17.90
2022-09-13T00:38:48.180Z,17.90
2022-09-13T00:41:18.081Z,17.80
2022-09-13T00:43:54.884Z,17.70
2022-09-13T00:46:40.262Z,17.80
2022-09-13T00:49:33.866Z,17.80
2022-09-13T00:52:07.230Z,17.80
2022-09-13T00:54:47.859Z,17.80
2022-09-13T00:57:19.502Z,17.70
2022-09-13T01:00:01.427Z,17.70
2022-09-13T01:02:29.159Z,17.70
2022-09-13T01:04:56.414Z,17.60
2022-09-13T01:07:23.321Z,17.70
2022-09-13T01:09:52.545Z,17.70
2022-09-13T01:12:49.947Z,17.70
2022-09-13T01:15:16.937Z,17.70
2022-09-13T01:17:44.274Z,17.60
2022-09-13T01:20:15.347Z,17.70
2022-09-13T01:23:23.802Z,17.60
2022-09-13T01:26:30.524Z,17.60
2022-09-13T01:30:04.757Z,17.70
2022-09-13T01:33:29.868Z,17.60
2022-09-13T01:36:40.750Z,17.60
2022-09-13T01:39:49.403Z,17.60
2022-09-13T01:43:03.681Z,17.60
2022-09-13T01:46:04.325Z,17.50
2022-09-13T01:49:00.810Z,17.50
2022-09-13T01:51:34.174Z,17.50
2022-09-13T01:54:31.235Z,17.50
2022-09-13T01:57:12.959Z,17.40
2022-09-13T01:59:53.827Z,17.40
2022-09-13T02:02:48.731Z,17.40
2022-09-13T02:05:27.621Z,17.40
2022-09-13T02:08:01.106Z,17.40
2022-09-13T02:10:41.611Z,17.30
2022-09-13T02:13:17.196Z,17.30
2022-09-13T02:15:57.082Z,17.20
2022-09-13T02:18:35.686Z,17.30
2022-09-13T02:21:14.542Z,17.20
2022-09-13T02:23:51.149Z,17.20
2022-09-13T02:26:21.306Z,17.20
2022-09-13T02:28:54.484Z,17.20
2022-09-13T02:31:35.014Z,17.20
2022-09-13T02:34:10.862Z,17.20
2022-09-13T02:36:41.182Z,17.20
2022-09-13T02:39:16.567Z,17.00
2022-09-13T02:42:01.990Z,17.10
2022-09-13T02:44:43.930Z,17.10
2022-09-13T02:47:59.261Z,17.10
2022-09-13T02:51:03.212Z,17.10
2022-09-13T02:54:00.865Z,17.10
2022-09-13T02:56:53.494Z,17.10
2022-09-13T02:59:24.026Z,17.10
2022-09-13T03:02:09.762Z,17.10
2022-09-13T03:04:36.847Z,17.10
2022-09-13T03:09:34.014Z,17.20
2022-09-13T03:12:42.466Z,17.10
2022-09-13T03:15:28.103Z,17.20
2022-09-13T03:18:25.710Z,17.20
2022-09-13T03:21:45.461Z,17.20
2022-09-13T03:24:40.706Z,17.20
2022-09-13T03:27:44.808Z,17.20
2022-09-13T03:30:17.350Z,17.20
2022-09-13T03:33:12.725Z,17.30
2022-09-13T03:36:25.020Z,17.20
2022-09-13T03:39:15.148Z,17.30
2022-09-13T03:41:51.193Z,17.30
2022-09-13T03:44:23.574Z,17.20
2022-09-13T03:46:57.346Z,17.20
2022-09-13T03:49:28.981Z,17.20
2022-09-13T03:51:58.154Z,17.20
2022-09-13T03:54:32.461Z,17.20
2022-09-13T03:57:17.729Z,17.20
2022-09-13T03:59:54.903Z,17.20
2022-09-13T04:02:24.853Z,17.20
2022-09-13T04:04:52.500Z,17.20
2022-09-13T04:07:23.432Z,17.20
2022-09-13T04:09:50.201Z,17.20
2022-09-13T04:12:18.944Z,17.20
2022-09-13T04:14:45.818Z,17.20
2022-09-13T04:17:13.366Z,17.30
2022-09-13T04:19:41.017Z,17.30
2022-09-13T04:22:07.860Z,17.30
2022-09-13T04:24:34.565Z,17.30
2022-09-13T04:27:01.790Z,17.20
2022-09-13T04:29:29.732Z,17.30
2022-09-13T04:31:56.494Z,17.40
2022-09-13T04:34:23.836Z,17.40
2022-09-13T04:36:52.645Z,17.40
2022-09-13T04:39:20.943Z,17.40
2022-09-13T04:41:51.478Z,17.40
2022-09-13T04:44:18.575Z,17.40
2022-09-13T04:46:48.826Z,17.50
2022-09-13T04:49:18.111Z,17.50
2022-09-13T04:51:44.933Z,17.50
2022-09-13T04:54:15.466Z,17.50
2022-09-13T04:56:44.083Z,17.50
2022-09-13T04:59:11.948Z,17.40
2022-09-13T05:01:39.011Z,17.50
2022-09-13T05:04:07.827Z,17.50
2022-09-13T05:06:34.901Z,17.60
2022-09-13T05:09:02.154Z,17.50
2022-09-13T05:11:29.798Z,17.60
2022-09-13T05:13:59.889Z,17.60
2022-09-13T05:16:29.945Z,17.70
2022-09-13T05:18:57.500Z,17.70
2022-09-13T05:21:25.022Z,17.70
2022-09-13T05:23:53.984Z,17.80
2022-09-13T05:26:23.533Z,17.80
2022-09-13T05:28:50.935Z,17.90
2022-09-13T05:31:26.968Z,17.90
2022-09-13T05:34:05.149Z,17.90
2022-09-13T05:36:32.212Z,18.00
2022-09-13T05:39:25.996Z,18.00
2022-09-13T05:41:46.349Z,18.10
2022-09-13T05:44:13.887Z,18.00
2022-09-13T05:46:42.714Z,18.10
2022-09-13T05:49:09.580Z,18.20
2022-09-13T05:51:36.411Z,18.20
2022-09-13T05:54:03.519Z,18.20
2022-09-13T05:56:32.072Z,18.20
2022-09-13T05:58:59.251Z,18.20
2022-09-13T06:01:28.640Z,18.30
2022-09-13T06:03:58.072Z,18.20
2022-09-13T06:06:25.967Z,18.30
2022-09-13T06:08:54.801Z,18.30
2022-09-13T06:11:21.819Z,18.30
2022-09-13T06:13:49.025Z,18.30
2022-09-13T06:16:17.024Z,18.30
2022-09-13T06:18:44.923Z,18.30
2022-09-13T06:21:19.892Z,18.20
2022-09-13T06:23:52.356Z,18.30
2022-09-13T06:26:26.225Z,18.30
2022-09-13T06:28:56.005Z,18.20
2022-09-13T06:31:26.666Z,18.20
2022-09-13T06:34:05.542Z,18.20
2022-09-13T06:36:32.274Z,18.20
2022-09-13T06:39:00.631Z,18.10
2022-09-13T06:41:28.129Z,18.10
2022-09-13T06:43:58.449Z,18.00
2022-09-13T06:46:30.181Z,18.10
2022-09-13T06:49:04.638Z,18.10
2022-09-13T06:51:32.857Z,18.00
2022-09-13T06:54:01.230Z,18.10
2022-09-13T06:56:34.448Z,18.10
2022-09-13T06:59:05.540Z,18.00
2022-09-13T07:01:38.883Z,18.20
2022-09-13T07:04:09.275Z,18.20
2022-09-13T07:06:40.044Z,18.20
2022-09-13T07:09:10.672Z,18.30
2022-09-13T07:11:40.554Z,18.40
2022-09-13T07:14:08.280Z,18.50
2022-09-13T07:16:38.082Z,18.60
2022-09-13T07:19:12.141Z,18.60
2022-09-13T07:21:38.899Z,18.70
2022-09-13T07:24:06.397Z,18.80
2022-09-13T07:26:33.596Z,18.90
2022-09-13T07:29:03.467Z,19.00
2022-09-13T07:31:36.541Z,19.00
2022-09-13T07:34:07.032Z,19.00
2022-09-13T07:36:36.358Z,19.10
2022-09-13T07:39:05.328Z,19.10
2022-09-13T07:41:34.009Z,19.20
2022-09-13T07:44:01.872Z,19.30
2022-09-13T07:46:35.467Z,19.30
2022-09-13T07:49:02.938Z,19.40
2022-09-13T07:51:33.598Z,19.40
2022-09-13T07:54:04.005Z,19.40
2022-09-13T07:56:35.011Z,19.50
2022-09-13T07:59:06.495Z,19.60
2022-09-13T08:01:43.845Z,19.50
2022-09-13T08:04:18.050Z,19.70
2022-09-13T08:06:46.711Z,19.80
2022-09-13T08:09:14.559Z,19.80
2022-09-13T08:11:47.523Z,19.90
2022-09-13T08:14:18.193Z,20.00
2022-09-13T08:16:45.468Z,20.10
2022-09-13T08:19:18.591Z,20.20
2022-09-13T08:21:46.505Z,20.30
2022-09-13T08:24:17.921Z,20.30
2022-09-13T08:26:45.691Z,20.40
2022-09-13T08:29:14.740Z,20.50
2022-09-13T08:31:41.569Z,20.60
2022-09-13T08:34:15.819Z,20.70
2022-09-13T08:36:43.782Z,20.80
2022-09-13T08:39:14.623Z,20.90
2022-09-13T08:41:46.727Z,21.00
2022-09-13T08:44:33.193Z,21.10
2022-09-13T08:47:48.135Z,21.10
2022-09-13T08:50:21.062Z,21.20
2022-09-13T08:53:18.191Z,21.30
2022-09-13T08:56:01.391Z,21.30
2022-09-13T08:59:26.747Z,21.40
2022-09-13T09:02:32.457Z,21.50
2022-09-13T09:05:19.299Z,21.50
2022-09-13T09:07:59.389Z,21.60
2022-09-13T09:11:01.502Z,21.70
2022-09-13T09:14:01.402Z,21.70
2022-09-13T09:16:33.786Z,21.80
2022-09-13T09:19:18.443Z,21.90
2022-09-13T09:21:49.522Z,22.00
2022-09-13T09:24:24.737Z,22.00
2022-09-13T09:26:57.514Z,22.00
2022-09-13T09:29:32.821Z,22.10
2022-09-13T09:32:47.245Z,22.10
2022-09-13T09:35:46.173Z,22.20
2022-09-13T09:38:44.088Z,22.20
2022-09-13T09:41:29.357Z,22.30
2022-09-13T09:44:01.756Z,22.30
2022-09-13T09:46:34.118Z,22.40
2022-09-13T09:49:39.155Z,22.40
2022-09-13T09:52:11.272Z,22.50
2022-09-13T09:54:39.142Z,22.60
2022-09-13T09:57:09.442Z,22.60
2022-09-13T09:59:37.102Z,22.60
2022-09-13T10:02:20.472Z,22.70
2022-09-13T10:05:02.869Z,22.90
2022-09-13T10:07:34.483Z,22.90
2022-09-13T10:10:20.539Z,23.10
2022-09-13T10:12:53.550Z,23.20
2022-09-13T10:15:25.904Z,23.30
2022-09-13T10:18:42.338Z,23.40
2022-09-13T10:21:18.306Z,23.60
2022-09-13T10:23:47.504Z,23.70
2022-09-13T10:26:22.617Z,23.80
2022-09-13T10:28:52.266Z,23.90
2022-09-13T10:31:21.361Z,24.00
2022-09-13T10:33:50.954Z,24.00
2022-09-13T10:36:48.638Z,24.10
2022-09-13T10:39:20.290Z,24.20
2022-09-13T10:41:57.023Z,24.30
2022-09-13T10:44:59.392Z,24.30
2022-09-13T10:47:46.105Z,24.50
2022-09-13T10:50:26.400Z,24.40
2022-09-13T10:52:54.556Z,24.60
2022-09-13T10:55:40.857Z,24.60
2022-09-13T10:58:07.720Z,24.70
2022-09-13T11:01:12.547Z,24.60
2022-09-13T11:04:16.404Z,24.80
2022-09-13T11:07:11.925Z,24.80
2022-09-13T11:10:22.041Z,24.80
2022-09-13T11:13:07.468Z,24.70
2022-09-13T11:16:04.336Z,24.70
2022-09-13T11:18:42.763Z,24.60
2022-09-13T11:21:25.869Z,24.60
2022-09-13T11:24:34.574Z,24.50
2022-09-13T11:27:27.953Z,24.50
2022-09-13T11:30:20.653Z,24.40
2022-09-13T11:33:15.276Z,24.40
2022-09-13T11:36:04.426Z,24.30
2022-09-13T11:39:13.523Z,24.20
2022-09-13T11:42:11.395Z,24.20
2022-09-13T11:44:56.525Z,24.20
2022-09-13T11:47:55.713Z,24.10
2022-09-13T11:50:31.632Z,24.10
2022-09-13T11:53:59.410Z,24.00
2022-09-13T11:56:52.382Z,24.00
2022-09-13T11:59:51.494Z,24.00
2022-09-13T12:02:46.773Z,23.90
2022-09-13T12:05:24.337Z,23.90
2022-09-13T12:08:10.821Z,23.90
2022-09-13T12:11:04.574Z,23.80
2022-09-13T12:13:44.666Z,23.80
2022-09-13T12:16:22.470Z,23.70
2022-09-13T12:18:57.177Z,23.70
2022-09-13T12:21:32.381Z,23.70
2022-09-13T12:24:16.858Z,23.60
2022-09-13T12:26:57.514Z,23.60
2022-09-13T12:29:36.613Z,23.50
2022-09-13T12:32:06.518Z,23.50
2022-09-13T12:35:17.856Z,23.50
2022-09-13T12:38:29.449Z,23.40
2022-09-13T12:41:09.932Z,23.30
2022-09-13T12:44:21.591Z,23.20
2022-09-13T12:47:40.267Z,23.10
2022-09-13T12:50:43.010Z,23.00
2022-09-13T12:54:15.499Z,23.00
2022-09-13T12:57:28.174Z,22.90
2022-09-13T13:00:24.396Z,22.90
2022-09-13T13:03:15.093Z,22.90
2022-09-13T13:05:57.404Z,22.90
2022-09-13T13:08:34.315Z,22.90
2022-09-13T13:11:12.567Z,22.90
2022-09-13T13:13:44.090Z,22.90
2022-09-13T13:16:36.900Z,22.90
2022-09-13T13:19:26.423Z,23.00
2022-09-13T13:21:54.333Z,23.00
2022-09-13T13:24:21.197Z,23.00
2022-09-13T13:26:55.390Z,23.00
2022-09-13T13:29:23.323Z,23.10
2022-09-13T13:32:07.405Z,23.10
2022-09-13T13:34:50.715Z,23.10
2022-09-13T13:37:20.369Z,23.10
2022-09-13T13:40:09.982Z,23.00
2022-09-13T13:42:39.608Z,23.00
2022-09-13T13:45:20.361Z,23.00
2022-09-13T13:48:07.518Z,23.00
2022-09-13T13:50:37.628Z,23.00
2022-09-13T13:53:34.966Z,23.00
2022-09-13T13:56:29.920Z,23.10
2022-09-13T13:59:22.176Z,23.10
2022-09-13T14:01:55.708Z,23.10
2022-09-13T14:05:00.398Z,23.20
2022-09-13T14:11:02.168Z,23.20
2022-09-13T14:13:44.572Z,23.30
2022-09-13T14:16:36.953Z,23.30
2022-09-13T14:19:07.471Z,23.30
2022-09-13T14:21:34.698Z,23.40
2022-09-13T14:24:23.433Z,23.40
2022-09-13T14:26:58.188Z,23.50
2022-09-13T14:29:26.236Z,23.60
2022-09-13T14:32:06.775Z,23.70
2022-09-13T14:34:38.716Z,23.70
2022-09-13T14:37:17.176Z,23.90
2022-09-13T14:40:01.216Z,23.90
2022-09-13T14:42:46.790Z,24.00
2022-09-13T14:45:31.961Z,24.00
2022-09-13T14:48:22.662Z,24.10
2022-09-13T14:50:59.661Z,24.10
2022-09-13T14:53:32.588Z,24.10
2022-09-13T14:56:16.368Z,24.10
2022-09-13T14:58:53.878Z,24.10
2022-09-13T15:01:31.206Z,24.10
2022-09-13T15:04:01.747Z,24.10
2022-09-13T15:06:42.155Z,24.10
2022-09-13T15:09:11.880Z,24.10
2022-09-13T15:11:56.632Z,24.10
2022-09-13T15:14:37.353Z,24.10
2022-09-13T15:17:08.915Z,24.10
2022-09-13T15:19:41.846Z,24.10
2022-09-13T15:22:20.721Z,24.10
2022-09-13T15:25:00.340Z,24.20
2022-09-13T15:27:31.951Z,24.10
2022-09-13T15:30:06.194Z,24.10
2022-09-13T15:32:43.506Z,24.10
2022-09-13T15:35:31.503Z,24.10
2022-09-13T15:38:28.539Z,24.20
2022-09-13T15:41:18.141Z,24.30
2022-09-13T15:43:48.409Z,24.20
2022-09-13T15:46:17.036Z,24.30
2022-09-13T15:49:02.318Z,24.20
2022-09-13T15:51:29.138Z,24.20
2022-09-13T15:53:56.497Z,24.10
2022-09-13T15:56:34.738Z,24.20
2022-09-13T15:59:01.432Z,24.10
2022-09-13T16:01:28.212Z,24.10
2022-09-13T16:03:54.974Z,24.10
2022-09-13T16:06:24.602Z,24.00
2022-09-13T16:08:51.637Z,24.00
2022-09-13T16:11:19.541Z,24.00
2022-09-13T16:13:46.263Z,23.80
2022-09-13T16:16:16.274Z,23.90
2022-09-13T16:18:43.226Z,23.80
2022-09-13T16:21:10.348Z,23.70
2022-09-13T16:23:37.132Z,23.60
2022-09-13T16:26:05.960Z,23.60
2022-09-13T16:28:32.710Z,23.60
2022-09-13T16:30:59.518Z,23.50
2022-09-13T16:33:26.283Z,23.50
2022-09-13T16:35:53.036Z,23.40
2022-09-13T16:38:19.775Z,23.40
2022-09-13T16:40:46.563Z,23.30
2022-09-13T16:43:13.610Z,23.30
2022-09-13T16:45:42.054Z,23.20
2022-09-13T16:48:09.268Z,23.20
2022-09-13T16:50:40.434Z,23.10
2022-09-13T16:53:08.327Z,23.10
2022-09-13T16:55:36.020Z,23.00
2022-09-13T16:58:03.160Z,23.00
2022-09-13T17:00:30.150Z,23.00
2022-09-13T17:02:57.688Z,23.10
2022-09-13T17:05:25.769Z,22.90
2022-09-13T17:07:53.087Z,22.80
2022-09-13T17:10:20.771Z,22.90
2022-09-13T17:12:48.149Z,22.80
2022-09-13T17:15:15.083Z,22.70
2022-09-13T17:17:42.414Z,22.70
2022-09-13T17:20:13.237Z,22.70
2022-09-13T17:22:40.535Z,22.60
2022-09-13T17:25:08.089Z,22.60
2022-09-13T17:27:35.788Z,22.50
2022-09-13T17:30:05.063Z,22.50
2022-09-13T17:32:32.297Z,22.50
2022-09-13T17:34:59.187Z,22.40
2022-09-13T17:37:25.929Z,22.40
2022-09-13T17:39:52.753Z,22.30
2022-09-13T17:42:23.169Z,22.30
2022-09-13T17:44:50.640Z,22.30
2022-09-13T17:47:17.393Z,22.30
2022-09-13T17:49:45.520Z,22.20
2022-09-13T17:52:12.460Z,22.10
2022-09-13T17:54:39.375Z,22.10
2022-09-13T17:57:06.108Z,22.10
2022-09-13T17:59:34.119Z,22.10
2022-09-13T18:02:01.128Z,22.10
2022-09-13T18:04:28.061Z,22.00
2022-09-13T18:06:55.254Z,22.00
2022-09-13T18:09:22.631Z,22.00
2022-09-13T18:11:50.091Z,21.90
2022-09-13T18:14:19.131Z,21.90
2022-09-13T18:16:46.628Z,21.80
2022-09-13T18:19:13.650Z,21.80
2022-09-13T18:21:40.564Z,21.80
2022-09-13T18:24:08.504Z,21.80
2022-09-13T18:26:35.921Z,21.80
2022-09-13T18:29:10.938Z,21.70
2022-09-13T18:31:39.481Z,21.70
2022-09-13T18:34:12.015Z,21.70
2022-09-13T18:36:40.687Z,21.70
2022-09-13T18:39:15.747Z,21.50
2022-09-13T18:41:42.692Z,21.60
2022-09-13T18:44:13.793Z,21.60
2022-09-13T18:46:41.604Z,21.50
2022-09-13T18:49:13.907Z,21.50
2022-09-13T18:51:43.752Z,21.50
2022-09-13T18:54:15.498Z,21.50
2022-09-13T18:56:42.371Z,21.50
2022-09-13T18:59:10.965Z,21.40
2022-09-13T19:01:42.074Z,21.40
2022-09-13T19:04:14.609Z,21.40
2022-09-13T19:06:55.728Z,21.30
2022-09-13T19:09:23.086Z,21.30
2022-09-13T19:11:53.510Z,21.30
2022-09-13T19:14:23.748Z,21.30
2022-09-13T19:16:53.432Z,21.20
2022-09-13T19:19:20.538Z,21.20
2022-09-13T19:21:47.956Z,21.20
2022-09-13T19:24:20.154Z,21.10
2022-09-13T19:26:52.294Z,21.10
2022-09-13T19:29:23.068Z,21.10
2022-09-13T19:31:52.617Z,21.10
2022-09-13T19:34:22.007Z,21.00
2022-09-13T19:36:52.498Z,21.00
2022-09-13T19:39:19.242Z,21.00
2022-09-13T19:41:45.952Z,20.90
2022-09-13T19:44:15.320Z,20.80
2022-09-13T19:46:45.453Z,20.80
2022-09-13T19:49:16.100Z,20.90
2022-09-13T19:51:48.836Z,20.90
2022-09-13T19:54:19.070Z,20.80
2022-09-13T19:56:46.168Z,20.80
2022-09-13T19:59:17.131Z,20.80
2022-09-13T20:01:45.616Z,20.80
2022-09-13T20:04:17.978Z,20.70
2022-09-13T20:06:49.193Z,20.70
2022-09-13T20:09:19.260Z,20.70
2022-09-13T20:11:48.519Z,20.70
2022-09-13T20:14:19.135Z,20.60
2022-09-13T20:16:46.661Z,20.70
2022-09-13T20:22:13.853Z,20.60
2022-09-13T20:24:40.577Z,20.60
2022-09-13T20:27:07.303Z,20.50
2022-09-13T20:29:34.702Z,20.50
2022-09-13T20:32:02.543Z,20.50
2022-09-13T20:34:29.387Z,20.50
2022-09-13T20:36:56.111Z,20.40
2022-09-13T20:39:23.040Z,20.40
2022-09-13T20:41:50.036Z,20.30
2022-09-13T20:44:16.942Z,20.30
2022-09-13T20:46:44.025Z,20.30
2022-09-13T20:49:11.653Z,20.30
2022-09-13T20:51:38.671Z,20.30
2022-09-13T20:54:06.298Z,20.30
2022-09-13T20:56:34.339Z,20.30
2022-09-13T20:59:02.085Z,20.30
2022-09-13T21:01:31.471Z,20.20
2022-09-13T21:03:59.367Z,20.30
2022-09-13T21:06:29.439Z,20.20
2022-09-13T21:08:59.938Z,20.20
2022-09-13T21:11:33.021Z,20.20
2022-09-13T21:14:04.421Z,20.20
2022-09-13T21:16:39.006Z,20.10
2022-09-13T21:19:06.241Z,20.00
2022-09-13T21:21:38.361Z,20.10
2022-09-13T21:24:09.779Z,20.10
2022-09-13T21:26:41.963Z,20.00
2022-09-13T21:29:10.679Z,20.00
2022-09-13T21:31:38.787Z,20.00
2022-09-13T21:34:14.544Z,20.00
2022-09-13T21:36:42.116Z,19.90
2022-09-13T21:39:09.069Z,19.80
2022-09-13T21:41:36.661Z,19.80
2022-09-13T21:44:03.691Z,19.80
2022-09-13T21:46:34.220Z,19.80
2022-09-13T21:49:04.982Z,19.70
2022-09-13T21:51:35.579Z,19.70
2022-09-13T21:54:06.667Z,19.70
2022-09-13T21:56:39.871Z,19.60
2022-09-13T21:59:16.698Z,19.70
2022-09-13T22:01:51.208Z,19.60
2022-09-13T22:04:22.952Z,19.50
2022-09-13T22:06:52.129Z,19.50
2022-09-13T22:09:20.782Z,19.40
2022-09-13T22:11:49.553Z,19.40
2022-09-13T22:14:21.553Z,19.30
2022-09-13T22:16:49.651Z,19.30
2022-09-13T22:19:26.739Z,19.30
2022-09-13T22:21:59.106Z,19.30
2022-09-13T22:24:29.775Z,19.20
2022-09-13T22:26:59.038Z,19.20
2022-09-13T22:29:26.768Z,19.20
2022-09-13T22:31:54.525Z,19.20
2022-09-13T22:34:24.655Z,19.20
2022-09-13T22:36:53.778Z,19.10
2022-09-13T22:39:20.498Z,19.10
2022-09-13T22:41:47.243Z,19.10
2022-09-13T22:44:14.225Z,19.10
2022-09-13T22:46:45.826Z,19.10
2022-09-13T22:49:16.136Z,19.00
2022-09-13T22:51:45.145Z,19.00
2022-09-13T22:54:13.674Z,19.00
2022-09-13T22:56:41.106Z,19.00
2022-09-13T22:59:15.752Z,18.90
2022-09-13T23:01:43.816Z,18.90
2022-09-13T23:04:11.601Z,18.90
2022-09-13T23:06:39.486Z,18.90
2022-09-13T23:09:08.321Z,18.90
2022-09-13T23:11:39.793Z,18.90
2022-09-13T23:14:10.567Z,18.80
2022-09-13T23:16:44.278Z,18.80
2022-09-13T23:19:13.000Z,18.80
2022-09-13T23:21:41.419Z,18.80
2022-09-13T23:24:14.340Z,18.80
2022-09-13T23:26:41.778Z,18.80
2022-09-13T23:29:12.428Z,18.70
2022-09-13T23:31:39.270Z,18.80
2022-09-13T23:34:09.438Z,18.70
2022-09-13T23:36:41.378Z,18.70
2022-09-13T23:39:16.815Z,18.60
2022-09-13T23:41:46.175Z,18.60
2022-09-13T23:44:13.475Z,18.60
2022-09-13T23:46:40.665Z,18.60
2022-09-13T23:49:07.421Z,18.50
2022-09-13T23:51:34.155Z,18.50
2022-09-13T23:54:01.797Z,18.50
2022-09-13T23:56:31.943Z,18.50
2022-09-13T23:59:02.874Z,18.50
